Главная страница
METAR-TAF:

METAR-TAF

Аэропорты :

Бургас, Болгария

широта: 42-29N, долгота: 027-29E, высота над уровнем моря: 16 м

Текущие метеонаблюдения

Эта сводка был подготовлена 22 минут назад, в 06:00 UTC
Ветер 5 Узел от юго-западный
Температура 18°C
Влажность 73%
Давление 1016 hPa
Видимость 10 км и более
Нет облачности ниже 1500 м, и нет кучево-дождевой облачности

METAR: LBBG 230600Z 23005KT CAVOK 18/13 Q1016 NOSIG

Время: 09:22 (06:22 UTC)

Прогноз

Эта сводка был подготовлена 1 час и 22 минут назад, в 05:00 UTC
Прогноз действительный с 23-го 06 UTC до 24-го 06 UTC
Ветер 10 Узел от юго-западный
Видимость 10 км и более
Нет облачности ниже 1500 м, и нет кучево-дождевой облачности
изменения
С 23-го 11 UTC до 23-го 13 UTC
Ветер 16 Узел от юго-восточный
изменения
С 23-го 20 UTC до 23-го 22 UTC
Ветер 8 Узел от северно-северо-западный

TAF: LBBG 230500Z 2306/2406 22010KT CAVOK BECMG 2311/2313 14016KT BECMG 2320/2322 33008KT

Метеонаблюдения и прогнозы для более 4000 аэропортов (сводки METAR и TAF).

Имеющиеся станции представлены на карте желтыми и красными точками.

Чтобы увидеть название станции, наведите на нее мышь.

Затем щелкните, чтобы увидеть метеонаблюдения и метеопрогнозы.

Управление картой: чтобы увеличить масштаб, щелкните зеленые кнопки с черным крестиком; чтобы уменьшить масштаб, щелкните зеленую кнопку с тире; для просмотра соседних карт щелкайте зеленые стрелки.


METAR-TAF: